< Typhoon 195512 1955 Season Typhoon 195514 >
Typhoon 195513 (GEORGIA)
General InformationTrack Information on Google Maps || Disaster Info.ResourceGoogle EarthGE AnimationAtom FeedGeoJSON
Detalied Best Track (Time Zone = UTC)
Year Month Day Hour Lat. Long. Pressure (hPa) Wind (kt) Class Image Chart
1955 7 23 06 11.5 153.0 1002 0 9 -- Chart
1955 7 23 12 11.9 152.6 1002 0 9 -- Chart
1955 7 23 18 12.3 152.2 1002 0 9 -- Chart
1955 7 24 00 12.8 151.7 1000 0 9 -- Chart
1955 7 24 06 13.9 150.6 990 0 9 -- Chart
1955 7 24 12 14.8 149.6 990 0 9 -- Chart
1955 7 24 18 15.7 149.0 990 0 9 -- Chart
1955 7 25 00 16.5 148.2 990 0 9 -- Chart
1955 7 25 06 17.7 147.3 985 0 9 -- Chart
1955 7 25 12 19.0 146.3 985 0 9 -- Chart
1955 7 25 18 20.2 145.4 985 0 9 -- Chart
1955 7 26 00 21.2 143.9 985 0 9 -- Chart
1955 7 26 06 21.9 142.7 985 0 9 -- Chart
1955 7 26 12 22.8 141.1 985 0 9 -- Chart
1955 7 26 18 23.9 139.5 980 0 9 -- Chart
1955 7 27 00 24.6 138.3 985 0 9 -- Chart
1955 7 27 06 25.2 137.2 990 0 9 -- Chart
1955 7 27 12 26.0 136.0 995 0 9 -- Chart
1955 7 27 18 26.8 135.0 995 0 9 -- Chart
1955 7 28 00 27.5 133.8 995 0 9 -- Chart
1955 7 28 06 28.2 132.6 995 0 9 -- Chart
1955 7 28 12 29.0 131.6 1000 0 9 -- Chart
1955 7 28 18 29.7 131.0 1000 0 9 -- Chart
1955 7 29 00 30.1 130.6 1004 0 9 -- Chart
1955 7 29 06 30.8 130.5 1004 0 9 -- Chart
1955 7 29 12 31.3 130.6 1008 0 2 -- Chart
Japan Meteorological Agency Best Track Data | Correction Date : 1989-06-01
< Typhoon 195512 1955 Season Typhoon 195514 >

Help